VRMM

Velana International Airport

Airport
ICAO code
VRMM
IATA Code
MLE
Summary
ICAO Region
APAC
ICAO Territory
Location

Hulhulé Island, Kaafu Atoll

Serving
Male
Elevation
6 ft
Coordinates
4° 11' 31" N , 73° 31' 45" E
KCC
Metar
Observation
VRMM 071900Z 29011KT 9999 FEW018 BKN270 28/24 Q1010 NOSIG
Station
Male
Date/Time
2022-10-07 19:00:00
Wind direction
290°
Wind speed
11 kts
Lowest cloud amount
few clouds
Temperature
28°C
Dew point
24°C
Humidity
78%
QNH
1010 hPa
Weather condition
n/a

Velana International Airport, also known as Malé International Airport, previously known as Ibrahim Nasir International Airport, is the main international airport in the Maldives. It is located on Hulhulé Island in the North Malé Atoll, nearby the capital island Malé.

The Waterdrome, where numerous seaplanes operate from, is located to the east of the main airport complex. Approach and departure routes from the waterdrome cross the main runway.

Climatology

Tropical monsoon climate (Köppen climate classification Am)

Airport map

Aerial View

Airport accidents

SKYbrary Partners:

Safety knowledge contributed by: